Hilo, HI

5:34 AM HST on December 22, 2014 (GMT -1000)
Hilo International | Change Station
CLOSE
Current Station
Airport
Location: Hilo,
Elevation: 36 ft
Nearby Weather Stations
Active Advisory: Flash Flood Watch

Elev 36 ft 19.72 °N, 155.05 °W | Updated 41 minutes ago

Overcast
Overcast
66 °F
Feels Like 66 °F
N
5
Wind Variable Wind from SSW

Today
High -- | Low -- °F
--% Chance of Precip.
Yesterday
High -- | Low -- °F
Precip. -- in
6:50 AM 5:47 PM
New Moon, 0% visible
Pressure 29.97 in
Visibility 10.0 miles
Clouds Scattered Clouds 6000 ft
Overcast 7000 ft
Dew Point 57 °F
Humidity 73%
Rainfall 0.00 in
Snow Depth Not available.
UV 0 out of 12
Pollen Not available.
Air Quality Not available.
Flu Activity Not available.
METAR PHTO 221453Z 21004KT 10SM SCT060 OVC070 19/14 A2998 RMK AO2 SLP149 T01890139 55002 $

More Conditions Fewer Conditions

Pressure 29.97 in
Visibility 10.0 miles
Clouds Scattered Clouds 6000 ft
Overcast 7000 ft
Dew Point 57 °F
Humidity 73%
Rainfall 0.00 in
Snow Depth Not available.
UV 0 out of 12
Pollen Not available.
Air Quality Not available.
Flu Activity Not available.
METAR PHTO 221453Z 21004KT 10SM SCT060 OVC070 19/14 A2998 RMK AO2 SLP149 T01890139 55002 $

More Conditions Fewer Conditions

10-Day Weather Forecast

Almanac

Astronomy

Dec. 22, 2014 Rise Set
Actual Time
Civil Twilight
Nautical Twilight
Astronomical Twilight
Moon
Length of Visible Light
Length of Day
Tomorrow will be .
, % of the Moon is Illuminated

Today's Extremes

State Highs State Lows

Community

WunderPhotos

Upload Photos

1,779,619 photos uploaded!

WunderBlogs® & News

Nearby

Air Quality

  Air Quality AQ Index Pollutant
Not available.

Snow Depth

Station Depth Elevation

Earthquake Activity

City Distance Mag. Time & Date
Minimum magnitude displayed is 2.5.

Coastal Water Temperatures

Place Temperature

Nearby Weather Stations